createdAt,value
2022-08-14T00:01:34.316Z,21.00
2022-08-14T00:04:35.062Z,21.00
2022-08-14T00:07:26.444Z,20.90
2022-08-14T00:10:51.755Z,20.80
2022-08-14T00:13:24.625Z,20.70
2022-08-14T00:16:41.611Z,20.70
2022-08-14T00:19:22.735Z,20.60
2022-08-14T00:22:15.635Z,20.70
2022-08-14T00:25:23.050Z,20.50
2022-08-14T00:28:15.477Z,22.20
2022-08-14T00:31:07.850Z,20.30
2022-08-14T00:33:58.768Z,20.20
2022-08-14T00:37:05.812Z,20.10
2022-08-14T00:39:57.266Z,20.10
2022-08-14T00:42:55.075Z,20.00
2022-08-14T00:45:51.588Z,19.90
2022-08-14T00:48:41.537Z,19.70
2022-08-14T00:51:34.810Z,19.60
2022-08-14T00:54:25.799Z,19.50
2022-08-14T00:57:15.701Z,19.40
2022-08-14T01:00:06.984Z,19.30
2022-08-14T01:03:15.126Z,19.40
2022-08-14T01:06:07.285Z,19.30
2022-08-14T01:08:59.449Z,19.20
2022-08-14T01:11:57.085Z,19.10
2022-08-14T01:14:46.763Z,19.10
2022-08-14T01:17:54.549Z,19.10
2022-08-14T01:20:59.316Z,19.00
2022-08-14T01:23:50.301Z,18.90
2022-08-14T01:26:42.445Z,18.80
2022-08-14T01:30:01.292Z,18.80
2022-08-14T01:32:51.173Z,18.70
2022-08-14T01:36:03.953Z,18.70
2022-08-14T01:38:50.746Z,18.80
2022-08-14T01:41:38.753Z,18.60
2022-08-14T01:44:32.907Z,18.60
2022-08-14T01:47:22.541Z,18.80
2022-08-14T01:50:11.462Z,18.60
2022-08-14T01:53:02.450Z,18.60
2022-08-14T01:55:52.060Z,18.60
2022-08-14T01:58:57.940Z,18.60
2022-08-14T02:01:51.374Z,18.50
2022-08-14T02:04:57.102Z,18.50
2022-08-14T02:07:55.619Z,18.60
2022-08-14T02:10:46.582Z,18.50
2022-08-14T02:13:37.200Z,18.50
2022-08-14T02:16:26.653Z,18.40
2022-08-14T02:19:15.545Z,18.40
2022-08-14T02:22:06.625Z,18.30
2022-08-14T02:24:58.784Z,18.30
2022-08-14T02:28:25.514Z,18.20
2022-08-14T02:30:58.063Z,18.20
2022-08-14T02:33:47.745Z,18.10
2022-08-14T02:37:05.430Z,18.00
2022-08-14T02:39:45.954Z,17.90
2022-08-14T02:42:37.062Z,17.80
2022-08-14T02:45:33.439Z,17.80
2022-08-14T02:49:03.950Z,17.80
2022-08-14T02:51:42.073Z,17.90
2022-08-14T02:54:34.530Z,17.80
2022-08-14T02:57:40.110Z,18.10
2022-08-14T03:00:32.412Z,17.90
2022-08-14T03:03:24.046Z,17.60
2022-08-14T03:06:20.581Z,17.50
2022-08-14T03:09:25.576Z,17.50
2022-08-14T03:12:32.904Z,17.40
2022-08-14T03:15:22.972Z,17.40
2022-08-14T03:18:18.457Z,17.20
2022-08-14T03:21:08.071Z,17.20
2022-08-14T03:24:05.453Z,17.10
2022-08-14T03:26:57.286Z,17.10
2022-08-14T03:29:46.970Z,17.40
2022-08-14T03:32:36.655Z,17.00
2022-08-14T03:35:33.739Z,17.10
2022-08-14T03:39:12.832Z,17.10
2022-08-14T03:41:38.122Z,17.00
2022-08-14T03:45:25.143Z,16.90
2022-08-14T03:47:46.795Z,16.90
2022-08-14T03:50:44.541Z,17.00
2022-08-14T03:53:37.514Z,17.40
2022-08-14T03:56:26.818Z,16.80
2022-08-14T03:59:18.043Z,16.70
2022-08-14T04:02:31.778Z,16.60
2022-08-14T04:05:17.712Z,16.60
2022-08-14T04:08:22.850Z,16.50
2022-08-14T04:11:15.616Z,16.40
2022-08-14T04:14:07.127Z,16.40
2022-08-14T04:16:58.326Z,16.40
2022-08-14T04:19:46.510Z,16.40
2022-08-14T04:22:36.897Z,16.40
2022-08-14T04:25:24.660Z,16.30
2022-08-14T04:29:01.923Z,16.40
2022-08-14T04:32:56.336Z,16.60
2022-08-14T04:34:31.782Z,16.90
2022-08-14T04:37:40.159Z,17.10
2022-08-14T04:40:49.017Z,16.50
2022-08-14T04:43:43.869Z,16.50
2022-08-14T04:46:56.351Z,16.40
2022-08-14T04:49:56.904Z,16.40
2022-08-14T04:52:45.347Z,16.50
2022-08-14T04:55:43.214Z,16.40
2022-08-14T04:58:33.764Z,16.30
2022-08-14T05:01:25.153Z,16.30
2022-08-14T05:04:16.173Z,16.30
2022-08-14T05:07:09.931Z,16.30
2022-08-14T05:09:57.499Z,16.20
2022-08-14T05:13:13.064Z,16.30
2022-08-14T05:15:55.265Z,16.20
2022-08-14T05:19:18.400Z,16.20
2022-08-14T05:22:15.597Z,16.30
2022-08-14T05:25:06.704Z,16.10
2022-08-14T05:28:00.694Z,15.00
2022-08-14T05:30:49.810Z,16.20
2022-08-14T05:33:38.258Z,16.20
2022-08-14T05:36:27.075Z,16.30
2022-08-14T05:39:14.995Z,16.30
2022-08-14T05:42:10.177Z,16.30
2022-08-14T05:45:11.316Z,16.40
2022-08-14T05:48:03.717Z,16.40
2022-08-14T05:50:54.897Z,17.70
2022-08-14T05:53:42.745Z,15.30
2022-08-14T05:56:31.391Z,16.50
2022-08-14T05:59:21.797Z,16.70
2022-08-14T06:02:25.188Z,18.50
2022-08-14T06:05:12.734Z,16.60
2022-08-14T06:08:00.919Z,17.50
2022-08-14T06:10:49.512Z,18.10
2022-08-14T06:13:45.760Z,18.50
2022-08-14T06:16:37.295Z,19.10
2022-08-14T06:19:25.396Z,19.40
2022-08-14T06:22:12.570Z,19.60
2022-08-14T06:25:00.326Z,19.80
2022-08-14T06:27:49.775Z,20.00
2022-08-14T06:30:45.750Z,19.50
2022-08-14T06:35:04.101Z,19.20
2022-08-14T06:36:43.470Z,19.00
2022-08-14T06:39:36.249Z,18.80
2022-08-14T06:42:33.060Z,19.10
2022-08-14T06:45:22.019Z,20.00
2022-08-14T06:48:17.337Z,18.90
2022-08-14T06:51:07.623Z,18.70
2022-08-14T06:53:58.559Z,18.70
2022-08-14T06:56:54.346Z,18.80
2022-08-14T06:59:45.132Z,18.80
2022-08-14T07:02:50.257Z,18.70
2022-08-14T07:05:55.694Z,19.20
2022-08-14T07:08:47.764Z,19.20
2022-08-14T07:11:35.906Z,19.40
2022-08-14T07:14:23.460Z,18.20
2022-08-14T07:17:11.036Z,19.70
2022-08-14T07:19:58.678Z,19.90
2022-08-14T07:22:56.486Z,20.00
2022-08-14T07:25:47.374Z,20.20
2022-08-14T07:28:43.028Z,20.40
2022-08-14T07:31:34.847Z,20.60
2022-08-14T07:34:40.842Z,20.60
2022-08-14T07:37:29.206Z,21.50
2022-08-14T07:40:22.129Z,21.30
2022-08-14T07:43:16.923Z,21.40
2022-08-14T07:46:04.841Z,21.40
2022-08-14T07:48:53.144Z,21.40
2022-08-14T07:51:41.023Z,21.50
2022-08-14T07:54:30.332Z,21.60
2022-08-14T07:57:22.225Z,21.70
2022-08-14T08:00:29.954Z,21.90
2022-08-14T08:03:19.807Z,21.90
2022-08-14T08:06:17.538Z,21.10
2022-08-14T08:09:06.460Z,22.30
2022-08-14T08:11:57.380Z,22.40
2022-08-14T08:14:56.640Z,22.50
2022-08-14T08:17:53.750Z,22.80
2022-08-14T08:20:52.218Z,22.90
2022-08-14T08:23:50.904Z,23.20
2022-08-14T08:26:40.019Z,23.40
2022-08-14T08:29:30.792Z,24.80
2022-08-14T08:32:19.118Z,23.70
2022-08-14T08:35:11.675Z,24.00
2022-08-14T08:38:14.136Z,24.20
2022-08-14T08:41:21.840Z,24.40
2022-08-14T08:44:30.081Z,24.60
2022-08-14T08:47:20.821Z,24.70
2022-08-14T08:50:23.022Z,24.90
2022-08-14T08:53:19.225Z,25.00
2022-08-14T08:56:07.622Z,25.10
2022-08-14T08:59:00.643Z,25.20
2022-08-14T09:01:52.423Z,25.30
2022-08-14T09:04:53.530Z,24.30
2022-08-14T09:07:43.147Z,25.80
2022-08-14T09:10:30.606Z,26.00
2022-08-14T09:13:22.376Z,25.70
2022-08-14T09:16:19.048Z,26.10
2022-08-14T09:19:12.424Z,26.40
2022-08-14T09:22:00.907Z,26.60
2022-08-14T09:25:15.040Z,26.80
2022-08-14T09:28:07.863Z,26.90
2022-08-14T09:30:57.780Z,27.20
2022-08-14T09:34:19.783Z,27.20
2022-08-14T09:37:28.881Z,27.30
2022-08-14T09:40:25.745Z,27.50
2022-08-14T09:43:25.717Z,27.60
2022-08-14T09:46:17.033Z,27.70
2022-08-14T09:49:16.446Z,27.90
2022-08-14T09:52:06.545Z,27.90
2022-08-14T09:55:21.604Z,28.00
2022-08-14T09:58:19.392Z,28.20
2022-08-14T10:01:12.828Z,28.10
2022-08-14T10:04:04.804Z,28.30
2022-08-14T10:07:00.871Z,28.30
2022-08-14T10:09:59.957Z,28.20
2022-08-14T10:12:54.790Z,28.80
2022-08-14T10:15:47.319Z,28.50
2022-08-14T10:18:35.554Z,28.40
2022-08-14T10:21:25.094Z,28.50
2022-08-14T10:24:36.371Z,28.50
2022-08-14T10:27:28.133Z,28.00
2022-08-14T10:30:22.633Z,28.30
2022-08-14T10:33:11.193Z,28.40
2022-08-14T10:36:03.762Z,28.50
2022-08-14T10:38:58.945Z,28.80
2022-08-14T10:41:54.147Z,29.10
2022-08-14T10:44:46.237Z,29.40
2022-08-14T10:48:07.722Z,29.70
2022-08-14T10:50:51.794Z,30.00
2022-08-14T10:53:40.072Z,30.00
2022-08-14T10:56:38.606Z,30.00
2022-08-14T10:59:35.428Z,29.70
2022-08-14T11:02:36.191Z,31.10
2022-08-14T11:05:46.765Z,29.90
2022-08-14T11:08:39.606Z,29.70
2022-08-14T11:11:35.921Z,30.10
2022-08-14T11:14:27.170Z,29.90
2022-08-14T11:17:15.847Z,30.10
2022-08-14T11:20:16.718Z,30.00
2022-08-14T11:23:08.989Z,30.20
2022-08-14T11:25:58.461Z,30.30
2022-08-14T11:28:51.991Z,30.50
2022-08-14T11:31:40.679Z,30.50
2022-08-14T11:34:32.420Z,30.90
2022-08-14T11:37:31.682Z,31.10
2022-08-14T11:40:30.950Z,31.30
2022-08-14T11:43:29.648Z,31.50
2022-08-14T11:46:29.695Z,31.60
2022-08-14T11:49:34.910Z,31.80
2022-08-14T11:52:24.681Z,32.50
2022-08-14T11:55:14.091Z,32.10
2022-08-14T11:58:04.435Z,32.20
2022-08-14T12:00:55.563Z,32.10
2022-08-14T12:03:52.156Z,32.20
2022-08-14T12:06:52.741Z,32.20
2022-08-14T12:09:42.950Z,32.30
2022-08-14T12:12:35.641Z,32.30
2022-08-14T12:15:37.313Z,32.50
2022-08-14T12:18:34.624Z,32.10
2022-08-14T12:21:25.568Z,32.10
2022-08-14T12:24:35.674Z,32.00
2022-08-14T12:27:53.108Z,32.20
2022-08-14T12:30:48.966Z,32.30
2022-08-14T12:33:47.197Z,32.40
2022-08-14T12:36:43.143Z,32.50
2022-08-14T12:39:39.663Z,32.60
2022-08-14T12:42:36.441Z,32.10
2022-08-14T12:45:34.705Z,31.90
2022-08-14T12:48:32.186Z,32.00
2022-08-14T12:51:21.843Z,31.80
2022-08-14T12:54:27.078Z,31.70
2022-08-14T12:57:20.650Z,31.70
2022-08-14T13:00:22.540Z,31.70
2022-08-14T13:03:11.711Z,32.00
2022-08-14T13:06:03.350Z,32.30
2022-08-14T13:08:52.734Z,32.50
2022-08-14T13:11:45.082Z,32.30
2022-08-14T13:14:37.065Z,32.20
2022-08-14T13:17:26.834Z,32.00
2022-08-14T13:20:23.518Z,32.30
2022-08-14T13:23:18.370Z,32.20
2022-08-14T13:26:19.134Z,32.50
2022-08-14T13:29:07.872Z,32.60
2022-08-14T13:31:59.202Z,32.70
2022-08-14T13:34:49.753Z,33.20
2022-08-14T13:37:42.392Z,33.10
2022-08-14T13:40:32.947Z,33.10
2022-08-14T13:43:20.782Z,33.00
2022-08-14T13:46:20.873Z,32.80
2022-08-14T13:49:14.945Z,32.80
2022-08-14T13:52:48.800Z,32.70
2022-08-14T13:55:14.002Z,32.50
2022-08-14T13:58:07.084Z,32.40
2022-08-14T14:01:18.954Z,32.30
2022-08-14T14:04:19.545Z,32.40
2022-08-14T14:07:11.557Z,32.50
2022-08-14T14:10:06.513Z,30.90
2022-08-14T14:12:56.393Z,32.50
2022-08-14T14:15:57.924Z,32.40
2022-08-14T14:18:49.398Z,32.00
2022-08-14T14:21:41.808Z,32.40
2022-08-14T14:24:34.804Z,32.40
2022-08-14T14:27:40.383Z,33.10
2022-08-14T14:30:52.588Z,32.70
2022-08-14T14:33:48.865Z,32.70
2022-08-14T14:36:37.074Z,33.10
2022-08-14T14:39:31.356Z,32.60
2022-08-14T14:42:32.030Z,32.60
2022-08-14T14:45:27.049Z,32.60
2022-08-14T14:48:20.197Z,32.60
2022-08-14T14:51:12.922Z,32.60
2022-08-14T14:54:01.958Z,32.60
2022-08-14T14:56:58.269Z,32.70
2022-08-14T14:59:50.770Z,32.70
2022-08-14T15:02:40.880Z,32.70
2022-08-14T15:05:36.192Z,32.60
2022-08-14T15:08:55.535Z,32.50
2022-08-14T15:11:34.692Z,32.50
2022-08-14T15:14:54.614Z,32.40
2022-08-14T15:17:40.900Z,32.30
2022-08-14T15:20:31.537Z,32.30
2022-08-14T15:23:22.335Z,32.20
2022-08-14T15:26:23.704Z,32.00
2022-08-14T15:29:20.788Z,32.00
2022-08-14T15:32:14.627Z,31.80
2022-08-14T15:35:05.108Z,31.80
2022-08-14T15:37:56.353Z,31.60
2022-08-14T15:40:51.622Z,31.70
2022-08-14T15:43:47.931Z,31.50
2022-08-14T15:46:43.258Z,31.30
2022-08-14T15:49:39.817Z,31.10
2022-08-14T15:52:32.013Z,31.10
2022-08-14T15:55:23.588Z,31.10
2022-08-14T15:58:14.573Z,30.90
2022-08-14T16:01:43.668Z,30.90
2022-08-14T16:04:31.768Z,30.70
2022-08-14T16:07:25.376Z,31.70
2022-08-14T16:10:29.748Z,30.70
2022-08-14T16:13:39.305Z,30.60
2022-08-14T16:16:34.604Z,30.60
2022-08-14T16:19:44.549Z,30.60
2022-08-14T16:22:57.171Z,30.70
2022-08-14T16:25:44.038Z,30.80
2022-08-14T16:28:33.785Z,30.90
2022-08-14T16:31:26.192Z,30.90
2022-08-14T16:34:46.423Z,30.90
2022-08-14T16:37:43.421Z,30.90
2022-08-14T16:40:32.466Z,31.90
2022-08-14T16:43:26.802Z,30.80
2022-08-14T16:46:22.376Z,30.70
2022-08-14T16:49:18.580Z,30.70
2022-08-14T16:52:25.827Z,30.60
2022-08-14T16:55:30.518Z,30.40
2022-08-14T16:58:29.837Z,30.40
2022-08-14T17:01:24.307Z,30.00
2022-08-14T17:04:24.395Z,30.00
2022-08-14T17:07:15.658Z,30.00
2022-08-14T17:10:09.890Z,29.80
2022-08-14T17:13:17.176Z,29.70
2022-08-14T17:16:10.780Z,29.40
2022-08-14T17:19:19.840Z,29.60
2022-08-14T17:22:11.143Z,29.40
2022-08-14T17:25:06.691Z,29.30
2022-08-14T17:28:51.065Z,29.40
2022-08-14T17:31:17.757Z,29.20
2022-08-14T17:34:08.759Z,29.10
2022-08-14T17:37:06.979Z,29.00
2022-08-14T17:40:15.137Z,28.90
2022-08-14T17:43:04.505Z,28.80
2022-08-14T17:45:56.040Z,28.80
2022-08-14T17:49:13.730Z,28.70
2022-08-14T17:52:07.615Z,28.60
2022-08-14T17:55:07.194Z,27.50
2022-08-14T17:57:57.040Z,28.30
2022-08-14T18:00:45.358Z,28.70
2022-08-14T18:03:50.098Z,27.90
2022-08-14T18:07:05.977Z,27.80
2022-08-14T18:09:58.636Z,28.00
2022-08-14T18:12:48.920Z,27.80
2022-08-14T18:15:41.204Z,27.70
2022-08-14T18:18:31.864Z,27.60
2022-08-14T18:21:23.553Z,27.20
2022-08-14T18:24:31.894Z,27.40
2022-08-14T18:27:24.846Z,27.50
2022-08-14T18:30:36.501Z,27.20
2022-08-14T18:33:24.502Z,28.60
2022-08-14T18:36:47.150Z,26.90
2022-08-14T18:39:26.237Z,26.90
2022-08-14T18:42:34.908Z,26.80
2022-08-14T18:45:28.865Z,26.80
2022-08-14T18:48:50.134Z,26.60
2022-08-14T18:51:45.868Z,26.60
2022-08-14T18:54:38.934Z,26.50
2022-08-14T18:57:49.811Z,26.40
2022-08-14T19:00:58.771Z,26.30
2022-08-14T19:03:48.148Z,26.20
2022-08-14T19:06:56.916Z,26.20
2022-08-14T19:09:58.335Z,26.20
2022-08-14T19:12:56.776Z,26.20
2022-08-14T19:15:56.453Z,26.10
2022-08-14T19:18:50.554Z,26.10
2022-08-14T19:21:41.091Z,26.00
2022-08-14T19:24:43.992Z,26.00
2022-08-14T19:27:37.769Z,25.90
2022-08-14T19:30:29.979Z,26.10
2022-08-14T19:33:36.523Z,25.70
2022-08-14T19:37:04.360Z,25.60
2022-08-14T19:39:56.317Z,25.60
2022-08-14T19:42:47.310Z,25.60
2022-08-14T19:45:37.216Z,25.60
2022-08-14T19:48:26.434Z,25.60
2022-08-14T19:51:21.648Z,25.40
2022-08-14T19:54:15.345Z,25.30
2022-08-14T19:57:03.811Z,25.30
2022-08-14T20:00:04.570Z,25.30
2022-08-14T20:03:11.715Z,25.30
2022-08-14T20:06:05.489Z,25.00
2022-08-14T20:11:07.165Z,25.00
2022-08-14T20:12:34.941Z,24.90
2022-08-14T20:15:27.137Z,24.80
2022-08-14T20:18:50.186Z,25.00
2022-08-14T20:22:00.751Z,23.80
2022-08-14T20:24:47.534Z,24.70
2022-08-14T20:27:40.210Z,24.70
2022-08-14T20:30:34.606Z,24.70
2022-08-14T20:33:25.032Z,24.80
2022-08-14T20:36:25.941Z,24.70
2022-08-14T20:39:15.983Z,24.80
2022-08-14T20:42:23.848Z,24.80
2022-08-14T20:45:24.233Z,25.40
2022-08-14T20:48:15.478Z,25.10
2022-08-14T20:51:25.156Z,24.60
2022-08-14T20:54:14.417Z,24.70
2022-08-14T20:57:07.356Z,24.50
2022-08-14T20:59:57.166Z,24.50
2022-08-14T21:02:51.039Z,24.40
2022-08-14T21:05:38.628Z,24.40
2022-08-14T21:08:37.466Z,24.80
2022-08-14T21:11:31.282Z,24.30
2022-08-14T21:14:28.555Z,22.60
2022-08-14T21:17:16.918Z,24.30
2022-08-14T21:20:26.525Z,24.30
2022-08-14T21:23:16.172Z,24.20
2022-08-14T21:26:09.806Z,22.80
2022-08-14T21:29:08.136Z,24.20
2022-08-14T21:31:56.792Z,24.20
2022-08-14T21:34:54.987Z,24.20
2022-08-14T21:37:46.251Z,24.30
2022-08-14T21:40:42.689Z,24.40
2022-08-14T21:43:35.600Z,24.60
2022-08-14T21:46:31.873Z,24.30
2022-08-14T21:49:23.861Z,25.20
2022-08-14T21:52:52.048Z,24.40
2022-08-14T21:55:23.878Z,24.30
2022-08-14T21:58:54.505Z,24.20
2022-08-14T22:01:20.742Z,24.60
2022-08-14T22:04:34.433Z,24.20
2022-08-14T22:07:19.629Z,24.30
2022-08-14T22:10:23.101Z,24.10
2022-08-14T22:13:13.576Z,24.10
2022-08-14T22:16:05.332Z,24.50
2022-08-14T22:18:54.779Z,24.10
2022-08-14T22:21:44.641Z,24.20
2022-08-14T22:24:38.069Z,24.20
2022-08-14T22:27:56.283Z,24.20
2022-08-14T22:30:46.722Z,24.20
2022-08-14T22:33:34.387Z,24.30
2022-08-14T22:36:42.307Z,24.20
2022-08-14T22:40:17.309Z,24.30
2022-08-14T22:43:00.095Z,24.00
2022-08-14T22:45:55.290Z,24.10
2022-08-14T22:48:45.399Z,24.10
2022-08-14T22:51:40.789Z,24.20
2022-08-14T22:54:53.178Z,24.20
2022-08-14T22:57:43.512Z,24.10
2022-08-14T23:00:31.903Z,24.20
2022-08-14T23:03:22.845Z,24.10
2022-08-14T23:07:04.058Z,24.00
2022-08-14T23:09:35.380Z,23.90
2022-08-14T23:12:27.357Z,24.10
2022-08-14T23:15:18.081Z,24.00
2022-08-14T23:18:07.642Z,23.90
2022-08-14T23:21:02.558Z,24.00
2022-08-14T23:23:51.575Z,24.00
2022-08-14T23:26:53.754Z,23.90
2022-08-14T23:29:41.918Z,23.90
2022-08-14T23:32:33.451Z,23.90
2022-08-14T23:35:27.154Z,23.80
2022-08-14T23:38:29.846Z,23.80
2022-08-14T23:44:27.438Z,24.00
2022-08-14T23:47:26.087Z,23.70
2022-08-14T23:50:34.286Z,23.60
2022-08-14T23:53:28.528Z,23.60
2022-08-14T23:56:37.554Z,23.60
2022-08-14T23:59:30.759Z,23.60
